createdAt,value
2017-08-15T00:01:25.511Z,86.70
2017-08-15T00:03:53.325Z,87.05
2017-08-15T00:06:21.181Z,87.46
2017-08-15T00:08:49.023Z,87.40
2017-08-15T00:11:16.857Z,87.43
2017-08-15T00:13:44.706Z,87.58
2017-08-15T00:16:12.564Z,87.71
2017-08-15T00:18:40.370Z,87.88
2017-08-15T00:21:08.220Z,87.90
2017-08-15T00:23:36.067Z,87.98
2017-08-15T00:26:03.938Z,88.02
2017-08-15T00:28:31.735Z,87.86
2017-08-15T00:30:59.567Z,87.91
2017-08-15T00:33:27.434Z,87.63
2017-08-15T00:35:55.262Z,87.55
2017-08-15T00:38:23.127Z,87.08
2017-08-15T00:40:51.002Z,86.83
2017-08-15T00:43:18.915Z,86.53
2017-08-15T00:45:46.742Z,87.09
2017-08-15T00:48:14.637Z,87.17
2017-08-15T00:50:42.396Z,86.58
2017-08-15T00:53:10.267Z,86.36
2017-08-15T00:55:38.113Z,85.81
2017-08-15T00:58:05.984Z,85.70
2017-08-15T01:00:33.799Z,85.71
2017-08-15T01:03:01.644Z,85.43
2017-08-15T01:05:29.524Z,85.26
2017-08-15T01:07:57.380Z,85.04
2017-08-15T01:10:25.271Z,84.82
2017-08-15T01:12:53.092Z,85.16
2017-08-15T01:15:20.944Z,84.86
2017-08-15T01:17:48.768Z,84.57
2017-08-15T01:20:16.677Z,84.58
2017-08-15T01:22:44.515Z,84.40
2017-08-15T01:25:12.377Z,84.32
2017-08-15T01:27:40.241Z,84.16
2017-08-15T01:30:08.124Z,84.23
2017-08-15T01:32:35.944Z,84.56
2017-08-15T01:35:03.835Z,84.59
2017-08-15T01:37:49.308Z,84.11
2017-08-15T01:40:17.168Z,83.93
2017-08-15T01:42:44.977Z,83.63
2017-08-15T01:45:12.804Z,83.38
2017-08-15T01:47:40.660Z,83.50
2017-08-15T01:50:08.499Z,83.40
2017-08-15T01:52:36.404Z,83.24
2017-08-15T01:55:04.245Z,82.99
2017-08-15T01:57:32.116Z,83.04
2017-08-15T01:59:59.932Z,82.55
2017-08-15T02:02:27.804Z,82.52
2017-08-15T02:04:55.643Z,82.46
2017-08-15T02:07:23.533Z,82.67
2017-08-15T02:09:51.387Z,82.68
2017-08-15T02:12:19.255Z,82.70
2017-08-15T02:14:47.076Z,83.04
2017-08-15T02:17:14.895Z,83.15
2017-08-15T02:19:42.773Z,83.16
2017-08-15T02:22:10.584Z,83.18
2017-08-15T02:24:38.467Z,83.29
2017-08-15T02:27:06.296Z,83.33
2017-08-15T02:29:34.204Z,83.87
2017-08-15T02:32:02.009Z,84.17
2017-08-15T02:34:29.865Z,84.24
2017-08-15T02:36:57.701Z,84.35
2017-08-15T02:39:25.545Z,84.35
2017-08-15T02:41:53.371Z,84.87
2017-08-15T02:44:21.134Z,85.23
2017-08-15T02:46:48.942Z,85.54
2017-08-15T02:49:16.748Z,85.92
2017-08-15T02:51:44.620Z,86.14
2017-08-15T02:54:12.450Z,86.46
2017-08-15T02:56:40.316Z,86.83
2017-08-15T02:59:08.172Z,87.18
2017-08-15T03:01:36.036Z,87.24
2017-08-15T03:04:03.866Z,87.48
2017-08-15T03:06:31.723Z,87.71
2017-08-15T03:08:59.579Z,87.78
2017-08-15T03:11:27.469Z,88.05
2017-08-15T03:13:55.292Z,88.07
2017-08-15T03:16:23.179Z,88.28
2017-08-15T03:18:50.993Z,88.23
2017-08-15T03:21:18.796Z,88.45
2017-08-15T03:23:46.698Z,88.26
2017-08-15T03:26:14.536Z,88.03
2017-08-15T03:28:42.408Z,87.81
2017-08-15T03:31:10.245Z,87.60
2017-08-15T03:33:38.118Z,87.46
2017-08-15T03:36:05.937Z,87.40
2017-08-15T03:38:33.831Z,87.22
2017-08-15T03:41:01.636Z,87.19
2017-08-15T03:43:29.497Z,87.13
2017-08-15T03:45:57.336Z,87.24
2017-08-15T03:48:25.230Z,87.22
2017-08-15T03:50:53.080Z,87.27
2017-08-15T03:53:20.909Z,87.36
2017-08-15T03:55:48.786Z,87.48
2017-08-15T03:58:16.590Z,87.43
2017-08-15T04:00:44.471Z,87.30
2017-08-15T04:03:12.271Z,87.31
2017-08-15T04:05:40.137Z,87.23
2017-08-15T04:08:08.053Z,87.22
2017-08-15T04:10:35.954Z,87.01
2017-08-15T04:13:03.789Z,87.07
2017-08-15T04:15:31.641Z,87.09
2017-08-15T04:17:59.389Z,87.04
2017-08-15T04:20:27.283Z,87.03
2017-08-15T04:22:55.124Z,87.06
2017-08-15T04:25:23.218Z,87.19
2017-08-15T04:27:51.030Z,87.02
2017-08-15T04:30:18.837Z,86.83
2017-08-15T04:32:46.632Z,86.85
2017-08-15T04:35:14.473Z,86.87
2017-08-15T04:37:42.324Z,86.97
2017-08-15T04:40:10.140Z,86.86
2017-08-15T04:42:37.933Z,86.83
2017-08-15T04:45:05.683Z,86.73
2017-08-15T04:47:33.465Z,86.55
2017-08-15T04:50:01.210Z,86.59
2017-08-15T04:52:29.001Z,86.39
2017-08-15T04:54:56.707Z,86.13
2017-08-15T04:57:24.470Z,85.95
2017-08-15T04:59:52.210Z,85.83
2017-08-15T05:02:19.953Z,85.57
2017-08-15T05:04:47.714Z,85.33
2017-08-15T05:07:15.498Z,85.23
2017-08-15T05:09:43.243Z,84.67
2017-08-15T05:12:11.074Z,84.27
2017-08-15T05:14:38.863Z,84.62
2017-08-15T05:17:06.596Z,83.63
2017-08-15T05:19:34.388Z,82.80
2017-08-15T05:22:02.132Z,81.88
2017-08-15T05:24:29.936Z,81.26
2017-08-15T05:26:57.664Z,80.91
2017-08-15T05:29:25.377Z,79.91
2017-08-15T05:31:53.174Z,79.56
2017-08-15T05:34:20.871Z,79.52
2017-08-15T05:36:48.642Z,80.48
2017-08-15T05:39:16.381Z,80.49
2017-08-15T05:41:44.186Z,80.61
2017-08-15T05:44:12.053Z,80.52
2017-08-15T05:46:39.845Z,80.51
2017-08-15T05:49:07.665Z,80.12
2017-08-15T05:51:35.425Z,80.45
2017-08-15T05:54:03.153Z,80.42
2017-08-15T05:56:30.858Z,79.66
2017-08-15T05:58:58.666Z,78.97
2017-08-15T06:01:26.433Z,78.72
2017-08-15T06:03:54.239Z,77.66
2017-08-15T06:06:22.044Z,77.78
2017-08-15T06:08:49.813Z,77.43
2017-08-15T06:11:17.577Z,77.89
2017-08-15T06:13:45.644Z,77.31
2017-08-15T06:16:13.432Z,77.37
2017-08-15T06:18:41.224Z,77.92
2017-08-15T06:21:08.949Z,77.18
2017-08-15T06:23:36.700Z,77.58
2017-08-15T06:26:04.432Z,77.30
2017-08-15T06:28:32.225Z,77.35
2017-08-15T06:30:59.949Z,76.75
2017-08-15T06:33:27.681Z,77.31
2017-08-15T06:35:55.445Z,77.49
2017-08-15T06:38:23.209Z,77.40
2017-08-15T06:40:50.988Z,77.65
2017-08-15T06:43:18.731Z,77.04
2017-08-15T06:45:46.512Z,76.98
2017-08-15T06:48:14.238Z,77.18
2017-08-15T06:50:42.036Z,77.53
2017-08-15T06:53:09.780Z,76.78
2017-08-15T06:55:37.544Z,76.78
2017-08-15T06:58:05.321Z,77.28
2017-08-15T07:00:33.104Z,77.43
2017-08-15T07:03:00.843Z,77.28
2017-08-15T07:05:28.619Z,76.41
2017-08-15T07:07:57.454Z,76.85
2017-08-15T07:10:25.365Z,76.62
2017-08-15T07:12:53.196Z,76.40
2017-08-15T07:15:21.036Z,76.11
2017-08-15T07:17:48.930Z,75.56
2017-08-15T07:20:16.679Z,75.21
2017-08-15T07:22:44.591Z,75.31
2017-08-15T07:25:12.422Z,74.87
2017-08-15T07:27:40.193Z,75.44
2017-08-15T07:30:08.141Z,75.28
2017-08-15T07:32:36.036Z,74.99
2017-08-15T07:35:03.928Z,74.18
2017-08-15T07:37:31.813Z,74.50
2017-08-15T07:39:59.658Z,74.98
2017-08-15T07:42:27.549Z,74.49
2017-08-15T07:44:55.386Z,74.31
2017-08-15T07:47:23.531Z,73.66
2017-08-15T07:49:51.377Z,74.14
2017-08-15T07:52:19.309Z,73.64
2017-08-15T07:54:47.140Z,74.20
2017-08-15T07:57:14.994Z,73.73
2017-08-15T07:59:42.874Z,74.44
2017-08-15T08:02:10.729Z,73.86
2017-08-15T08:04:38.593Z,72.92
2017-08-15T08:07:06.457Z,71.62
2017-08-15T08:09:34.376Z,69.81
2017-08-15T08:12:02.280Z,71.32
2017-08-15T08:14:30.166Z,70.17
2017-08-15T08:16:57.990Z,68.02
2017-08-15T08:19:25.868Z,66.48
2017-08-15T08:21:53.729Z,66.45
2017-08-15T08:24:21.598Z,66.68
2017-08-15T08:26:49.424Z,66.90
2017-08-15T08:29:17.325Z,66.61
2017-08-15T08:31:45.175Z,66.36
2017-08-15T08:34:13.177Z,65.54
2017-08-15T08:36:41.063Z,66.89
2017-08-15T08:39:08.896Z,64.65
2017-08-15T08:41:36.772Z,63.71
2017-08-15T08:44:04.611Z,64.59
2017-08-15T08:46:32.479Z,62.75
2017-08-15T08:51:27.493Z,61.17
2017-08-15T08:53:55.303Z,61.25
2017-08-15T08:56:23.191Z,61.35
2017-08-15T08:58:50.919Z,59.85
2017-08-15T09:01:18.727Z,61.82
2017-08-15T09:04:36.042Z,61.61
2017-08-15T09:07:03.796Z,60.60
2017-08-15T09:09:31.574Z,59.93
2017-08-15T09:11:59.324Z,61.19
2017-08-15T09:14:27.101Z,58.77
2017-08-15T09:16:55.036Z,58.34
2017-08-15T09:19:22.909Z,58.24
2017-08-15T09:21:50.855Z,58.35
2017-08-15T09:24:18.625Z,57.49
2017-08-15T09:26:46.412Z,56.93
2017-08-15T09:29:14.207Z,55.59
2017-08-15T09:31:41.990Z,56.70
2017-08-15T09:34:10.875Z,58.26
2017-08-15T09:36:38.626Z,56.59
2017-08-15T09:39:06.907Z,55.57
2017-08-15T09:41:35.471Z,57.15
2017-08-15T09:44:03.397Z,55.88
2017-08-15T09:46:31.146Z,56.98
2017-08-15T09:48:58.917Z,57.76
2017-08-15T09:51:26.626Z,56.03
2017-08-15T09:53:54.397Z,57.08
2017-08-15T09:56:22.116Z,56.08
2017-08-15T09:58:55.355Z,56.81
2017-08-15T10:01:23.110Z,56.79
2017-08-15T10:03:50.848Z,55.98
2017-08-15T10:06:18.614Z,55.64
2017-08-15T10:08:46.368Z,57.23
2017-08-15T10:11:14.181Z,55.21
2017-08-15T10:13:42.040Z,56.69
2017-08-15T10:16:09.905Z,54.57
2017-08-15T10:18:37.754Z,55.17
2017-08-15T10:21:05.713Z,53.67
2017-08-15T10:23:33.557Z,53.65
2017-08-15T10:26:01.345Z,53.79
2017-08-15T10:28:29.178Z,50.81
2017-08-15T10:30:57.038Z,52.26
2017-08-15T10:33:24.780Z,52.37
2017-08-15T10:35:52.736Z,52.42
2017-08-15T10:38:20.588Z,52.13
2017-08-15T10:40:48.478Z,49.63
2017-08-15T10:43:16.366Z,50.11
2017-08-15T10:45:44.259Z,50.58
2017-08-15T10:48:12.094Z,49.85
2017-08-15T10:50:39.874Z,50.67
2017-08-15T10:53:07.708Z,51.43
2017-08-15T10:55:35.556Z,50.89
2017-08-15T10:58:03.464Z,51.73
2017-08-15T11:00:31.355Z,51.31
2017-08-15T11:02:59.267Z,51.97
2017-08-15T11:05:27.124Z,50.98
2017-08-15T11:07:54.972Z,49.04
2017-08-15T11:10:22.855Z,51.30
2017-08-15T11:12:50.737Z,51.11
2017-08-15T11:15:18.553Z,53.40
2017-08-15T11:17:46.477Z,50.23
2017-08-15T11:20:14.342Z,49.09
2017-08-15T11:22:42.186Z,50.49
2017-08-15T11:25:10.032Z,49.83
2017-08-15T11:27:37.892Z,50.25
2017-08-15T11:30:05.685Z,50.79
2017-08-15T11:32:33.506Z,50.92
2017-08-15T11:35:01.373Z,51.29
2017-08-15T11:37:29.206Z,52.28
2017-08-15T11:39:57.079Z,50.41
2017-08-15T11:42:24.907Z,49.85
2017-08-15T11:44:52.781Z,50.81
2017-08-15T11:47:20.652Z,51.22
2017-08-15T11:49:48.552Z,50.58
2017-08-15T11:52:16.378Z,50.98
2017-08-15T11:54:44.294Z,53.67
2017-08-15T11:57:12.115Z,50.46
2017-08-15T11:59:39.991Z,50.57
2017-08-15T12:02:07.832Z,51.46
2017-08-15T12:04:35.706Z,50.45
2017-08-15T12:07:03.632Z,51.38
2017-08-15T12:09:31.484Z,50.32
2017-08-15T12:11:59.352Z,50.52
2017-08-15T12:14:27.207Z,51.68
2017-08-15T12:16:55.061Z,52.88
2017-08-15T12:19:22.914Z,51.67
2017-08-15T12:21:50.826Z,51.50
2017-08-15T12:24:18.668Z,50.34
2017-08-15T12:26:46.576Z,51.69
2017-08-15T12:29:14.433Z,50.91
2017-08-15T12:31:42.309Z,50.93
2017-08-15T12:34:10.057Z,50.77
2017-08-15T12:36:37.856Z,50.24
2017-08-15T12:39:05.595Z,50.04
2017-08-15T12:41:33.309Z,51.00
2017-08-15T12:44:01.096Z,49.22
2017-08-15T12:46:28.837Z,49.12
2017-08-15T12:48:56.654Z,51.55
2017-08-15T12:51:24.375Z,52.41
2017-08-15T12:53:52.257Z,50.94
2017-08-15T12:56:20.089Z,52.38
2017-08-15T12:58:47.886Z,50.74
2017-08-15T13:01:15.744Z,52.40
2017-08-15T13:03:43.656Z,48.91
2017-08-15T13:06:11.488Z,49.42
2017-08-15T13:08:39.421Z,49.35
2017-08-15T13:11:07.286Z,49.78
2017-08-15T13:13:35.151Z,49.45
2017-08-15T13:16:02.981Z,49.88
2017-08-15T13:18:30.894Z,48.95
2017-08-15T13:20:58.774Z,49.75
2017-08-15T13:23:26.654Z,50.22
2017-08-15T13:25:54.589Z,49.63
2017-08-15T13:28:22.480Z,49.73
2017-08-15T13:30:50.369Z,50.19
2017-08-15T13:33:18.272Z,50.59
2017-08-15T13:35:46.228Z,50.33
2017-08-15T13:38:14.066Z,50.52
2017-08-15T13:40:41.971Z,51.25
2017-08-15T13:43:09.791Z,51.61
2017-08-15T13:45:37.673Z,51.17
2017-08-15T13:48:05.531Z,51.17
2017-08-15T13:50:33.348Z,51.21
2017-08-15T13:53:01.227Z,50.02
2017-08-15T13:55:29.106Z,51.14
2017-08-15T13:57:56.948Z,51.20
2017-08-15T14:00:24.865Z,51.13
2017-08-15T14:02:52.780Z,51.06
2017-08-15T14:05:20.708Z,50.72
2017-08-15T14:07:48.662Z,49.27
2017-08-15T14:10:17.018Z,49.48
2017-08-15T14:12:44.929Z,50.60
2017-08-15T14:15:12.864Z,51.00
2017-08-15T14:17:40.751Z,51.57
2017-08-15T14:20:08.580Z,52.01
2017-08-15T14:22:36.497Z,52.62
2017-08-15T14:25:04.330Z,51.16
2017-08-15T14:27:32.248Z,51.78
2017-08-15T14:30:00.144Z,51.87
2017-08-15T14:32:28.009Z,53.39
2017-08-15T14:34:55.788Z,51.93
2017-08-15T14:37:23.648Z,52.94
2017-08-15T14:39:51.513Z,52.27
2017-08-15T14:42:19.274Z,53.52
2017-08-15T14:44:47.125Z,53.14
2017-08-15T14:47:14.956Z,53.13
2017-08-15T14:49:42.775Z,53.75
2017-08-15T14:52:10.549Z,53.68
2017-08-15T14:54:38.367Z,52.33
2017-08-15T14:57:06.177Z,52.12
2017-08-15T14:59:34.007Z,51.66
2017-08-15T15:02:01.804Z,52.27
2017-08-15T15:04:29.629Z,52.48
2017-08-15T15:06:57.492Z,53.14
2017-08-15T15:09:25.462Z,53.46
2017-08-15T15:11:53.354Z,54.85
2017-08-15T15:14:21.197Z,55.22
2017-08-15T15:16:49.156Z,53.72
2017-08-15T15:19:17.083Z,54.33
2017-08-15T15:21:44.996Z,54.32
2017-08-15T15:24:12.882Z,54.18
2017-08-15T15:26:40.837Z,55.15
2017-08-15T15:29:08.728Z,54.81
2017-08-15T15:31:36.655Z,55.01
2017-08-15T15:34:04.554Z,53.63
2017-08-15T15:36:32.525Z,53.35
2017-08-15T15:39:00.367Z,53.59
2017-08-15T15:41:28.307Z,54.30
2017-08-15T15:43:56.131Z,55.02
2017-08-15T15:46:23.971Z,54.41
2017-08-15T15:48:51.904Z,54.43
2017-08-15T15:51:19.837Z,54.51
2017-08-15T15:53:47.745Z,54.16
2017-08-15T15:56:15.594Z,55.58
2017-08-15T15:58:43.502Z,55.69
2017-08-15T16:01:11.325Z,55.46
2017-08-15T16:03:39.184Z,54.87
2017-08-15T16:06:07.034Z,54.56
2017-08-15T16:08:35.485Z,54.99
2017-08-15T16:11:03.350Z,53.49
2017-08-15T16:13:31.162Z,54.14
2017-08-15T16:15:58.974Z,53.47
2017-08-15T16:18:26.858Z,54.17
2017-08-15T16:20:54.669Z,54.90
2017-08-15T16:23:22.526Z,54.69
2017-08-15T16:25:50.352Z,55.27
2017-08-15T16:28:18.193Z,55.09
2017-08-15T16:30:45.965Z,55.61
2017-08-15T16:33:13.702Z,54.77
2017-08-15T16:35:41.483Z,55.23
2017-08-15T16:38:09.256Z,55.42
2017-08-15T16:40:37.083Z,55.11
2017-08-15T16:43:04.861Z,55.38
2017-08-15T16:45:32.668Z,55.17
2017-08-15T16:48:00.441Z,55.80
2017-08-15T16:50:28.326Z,56.26
2017-08-15T16:52:56.075Z,56.06
2017-08-15T16:55:23.955Z,56.79
2017-08-15T16:57:51.697Z,57.11
2017-08-15T17:00:19.474Z,57.32
2017-08-15T17:02:47.264Z,58.19
2017-08-15T17:05:15.110Z,58.18
2017-08-15T17:07:42.855Z,57.49
2017-08-15T17:10:10.608Z,57.76
2017-08-15T17:12:38.410Z,58.81
2017-08-15T17:15:06.127Z,58.46
2017-08-15T17:17:33.896Z,58.63
2017-08-15T17:20:01.604Z,58.92
2017-08-15T17:22:29.397Z,59.78
2017-08-15T17:24:57.186Z,60.04
2017-08-15T17:27:24.972Z,60.44
2017-08-15T17:29:52.718Z,60.83
2017-08-15T17:32:20.504Z,61.53
2017-08-15T17:34:48.238Z,61.96
2017-08-15T17:37:16.049Z,62.30
2017-08-15T17:39:43.832Z,62.91
2017-08-15T17:42:11.626Z,63.85
2017-08-15T17:44:39.422Z,64.38
2017-08-15T17:47:07.136Z,64.81
2017-08-15T17:49:34.903Z,67.72
2017-08-15T17:52:03.045Z,68.56
2017-08-15T17:54:30.851Z,69.79
2017-08-15T17:56:58.585Z,71.68
2017-08-15T17:59:26.387Z,73.29
2017-08-15T18:01:54.107Z,73.84
2017-08-15T18:04:21.893Z,75.11
2017-08-15T18:06:49.615Z,75.24
2017-08-15T18:09:17.452Z,76.17
2017-08-15T18:11:45.243Z,75.32
2017-08-15T18:14:12.987Z,75.39
2017-08-15T18:16:40.765Z,75.42
2017-08-15T18:19:08.501Z,77.03
2017-08-15T18:21:36.309Z,77.82
2017-08-15T18:24:04.047Z,77.66
2017-08-15T18:26:31.815Z,74.00
2017-08-15T18:28:59.551Z,73.48
2017-08-15T18:31:27.342Z,71.96
2017-08-15T18:33:55.078Z,71.17
2017-08-15T18:36:22.834Z,70.64
2017-08-15T18:38:50.578Z,70.48
2017-08-15T18:41:18.330Z,71.23
2017-08-15T18:43:46.070Z,71.50
2017-08-15T18:46:13.807Z,71.01
2017-08-15T18:48:41.717Z,71.37
2017-08-15T18:51:09.440Z,72.17
2017-08-15T18:53:37.411Z,72.50
2017-08-15T18:56:05.462Z,72.46
2017-08-15T18:58:33.293Z,72.25
2017-08-15T19:01:01.017Z,70.52
2017-08-15T19:03:28.806Z,70.62
2017-08-15T19:05:56.593Z,69.61
2017-08-15T19:08:24.412Z,69.68
2017-08-15T19:10:52.276Z,69.77
2017-08-15T19:13:20.196Z,69.82
2017-08-15T19:15:48.023Z,69.70
2017-08-15T19:18:15.792Z,68.99
2017-08-15T19:20:43.531Z,68.56
2017-08-15T19:23:11.295Z,69.06
2017-08-15T19:25:39.077Z,69.31
2017-08-15T19:28:06.818Z,69.04
2017-08-15T19:30:34.597Z,73.01
2017-08-15T19:33:02.362Z,73.02
2017-08-15T19:35:30.139Z,74.16
2017-08-15T19:37:58.227Z,75.94
2017-08-15T19:40:26.049Z,77.96
2017-08-15T19:42:53.899Z,81.51
2017-08-15T19:45:21.754Z,84.14
2017-08-15T19:47:49.539Z,85.24
2017-08-15T19:50:17.360Z,87.30
2017-08-15T19:52:45.227Z,88.88
2017-08-15T19:55:13.063Z,90.40
2017-08-15T19:57:40.953Z,90.83
2017-08-15T20:00:08.720Z,91.27
2017-08-15T20:02:36.617Z,92.11
2017-08-15T20:05:04.378Z,92.59
2017-08-15T20:07:32.559Z,93.07
2017-08-15T20:10:00.355Z,93.33
2017-08-15T20:12:28.248Z,93.46
2017-08-15T20:14:55.984Z,93.31
2017-08-15T20:17:23.698Z,93.52
2017-08-15T20:19:51.645Z,93.64
2017-08-15T20:22:19.467Z,93.80
2017-08-15T20:24:47.286Z,93.90
2017-08-15T20:27:15.034Z,94.07
2017-08-15T20:29:42.810Z,94.24
2017-08-15T20:32:10.646Z,94.21
2017-08-15T20:34:38.506Z,94.51
2017-08-15T20:37:06.350Z,94.48
2017-08-15T20:39:34.212Z,94.65
2017-08-15T20:42:01.927Z,94.77
2017-08-15T20:44:29.690Z,94.71
2017-08-15T20:46:57.496Z,94.71
2017-08-15T20:49:25.293Z,94.72
2017-08-15T20:51:53.118Z,94.80
2017-08-15T20:54:20.942Z,94.95
2017-08-15T20:56:48.869Z,95.04
2017-08-15T20:59:16.715Z,95.11
2017-08-15T21:01:44.575Z,95.12
2017-08-15T21:04:12.435Z,95.12
2017-08-15T21:06:40.361Z,95.14
2017-08-15T21:09:08.106Z,95.08
2017-08-15T21:11:35.989Z,95.09
2017-08-15T21:14:03.821Z,95.12
2017-08-15T21:16:31.677Z,95.13
2017-08-15T21:18:59.511Z,95.13
2017-08-15T21:21:27.405Z,95.10
2017-08-15T21:23:55.234Z,95.09
2017-08-15T21:26:23.086Z,95.11
2017-08-15T21:28:50.921Z,95.11
2017-08-15T21:31:18.789Z,95.05
2017-08-15T21:33:46.598Z,95.02
2017-08-15T21:36:14.471Z,94.88
2017-08-15T21:38:42.290Z,94.74
2017-08-15T21:41:10.117Z,94.56
2017-08-15T21:43:37.957Z,94.49
2017-08-15T21:46:05.810Z,94.51
2017-08-15T21:48:33.609Z,94.55
2017-08-15T21:51:01.491Z,94.66
2017-08-15T21:53:29.289Z,94.69
2017-08-15T21:55:57.176Z,94.71
2017-08-15T21:58:25.029Z,94.87
2017-08-15T22:00:58.422Z,94.93
2017-08-15T22:03:26.289Z,94.94
2017-08-15T22:05:54.125Z,95.02
2017-08-15T22:08:21.971Z,95.06
2017-08-15T22:10:49.850Z,95.17
2017-08-15T22:13:17.719Z,95.31
2017-08-15T22:15:45.546Z,95.35
2017-08-15T22:18:13.408Z,95.38
2017-08-15T22:20:41.136Z,95.46
2017-08-15T22:23:09.023Z,95.48
2017-08-15T22:25:36.844Z,95.49
2017-08-15T22:28:04.719Z,95.48
2017-08-15T22:30:32.543Z,95.47
2017-08-15T22:33:00.406Z,95.50
2017-08-15T22:35:28.250Z,95.49
2017-08-15T22:37:56.113Z,95.49
2017-08-15T22:40:23.950Z,95.50
2017-08-15T22:42:51.773Z,95.50
2017-08-15T22:45:19.643Z,95.54
2017-08-15T22:47:47.478Z,95.71
2017-08-15T22:50:15.349Z,95.71
2017-08-15T22:52:43.203Z,95.69
2017-08-15T22:55:11.105Z,95.69
2017-08-15T22:57:38.984Z,95.70
2017-08-15T23:00:06.866Z,95.70
2017-08-15T23:02:34.699Z,95.70
2017-08-15T23:05:02.548Z,95.69
2017-08-15T23:07:30.409Z,95.74
2017-08-15T23:09:58.345Z,95.75
2017-08-15T23:12:26.165Z,95.75
2017-08-15T23:14:54.043Z,95.77
2017-08-15T23:17:21.897Z,95.78
2017-08-15T23:19:49.766Z,95.79
2017-08-15T23:22:17.616Z,95.80
2017-08-15T23:24:45.436Z,95.81
2017-08-15T23:27:13.303Z,95.79
2017-08-15T23:29:41.141Z,95.75
2017-08-15T23:32:09.002Z,95.80
2017-08-15T23:34:36.829Z,95.86
2017-08-15T23:37:04.713Z,95.88
2017-08-15T23:39:32.572Z,95.91
2017-08-15T23:42:00.456Z,95.92
2017-08-15T23:44:28.262Z,95.95
2017-08-15T23:46:56.157Z,95.95
2017-08-15T23:49:23.994Z,96.00
2017-08-15T23:51:51.877Z,96.09
2017-08-15T23:54:19.685Z,96.23
2017-08-15T23:56:47.547Z,96.35
2017-08-15T23:59:15.365Z,96.43
